Time;durP1;ratioP1;P1;durP2;ratioP2;P2;SDS_P1;SDS_P2;PMS_P1;PMS_P2;Temp;Humidity;BMP_temperature;BMP_pressure;BME280_temperature;BME280_humidity;BME280_pressure;Samples;Min_cycle;Max_cycle;Signal;HPM_P1;HPM_P2
2021/10/26 00:05:11;;;;;;;19.90;12.63;;;;;;;9.31;93.05;100933.81;20833206;28;20055;-68
2021/10/26 00:15:14;;;;;;;17.00;11.07;;;;;;;9.33;93.99;100940.75;20833332;28;20049;-69
2021/10/26 00:25:16;;;;;;;20.58;11.07;;;;;;;9.41;94.34;100946.84;20831847;28;20107;-68
2021/10/26 00:35:17;;;;;;;15.75;10.63;;;;;;;9.47;94.31;100959.88;20831262;28;20059;-69
2021/10/26 00:45:20;;;;;;;16.20;10.20;;;;;;;9.47;94.46;100961.63;20831627;28;20653;-69
2021/10/26 00:55:22;;;;;;;18.40;11.57;;;;;;;9.46;94.60;100952.91;20830968;28;20061;-68
2021/10/26 01:05:24;;;;;;;16.85;10.82;;;;;;;9.39;95.09;100956.44;20828980;28;20049;-69
2021/10/26 01:15:25;;;;;;;20.02;11.15;;;;;;;9.35;95.57;100967.75;20829320;28;20140;-69
2021/10/26 01:25:27;;;;;;;18.05;10.07;;;;;;;9.30;95.42;100966.91;20828268;28;20091;-68
2021/10/26 01:35:29;;;;;;;15.13;9.43;;;;;;;9.16;95.78;100976.50;20827449;28;20099;-68
2021/10/26 01:45:31;;;;;;;20.45;10.70;;;;;;;9.10;95.88;100976.47;20827352;28;20045;-68
2021/10/26 01:55:32;;;;;;;18.48;11.00;;;;;;;9.06;96.32;100977.38;20826529;28;20069;-68
2021/10/26 02:05:34;;;;;;;17.38;10.63;;;;;;;9.07;96.88;100979.13;20824670;28;20569;-68
2021/10/26 02:15:35;;;;;;;18.25;11.95;;;;;;;9.11;96.90;100973.03;20824695;28;20821;-68
2021/10/26 02:25:37;;;;;;;16.98;11.77;;;;;;;9.16;96.63;100977.38;20823718;28;20049;-69
2021/10/26 02:35:39;;;;;;;18.80;12.70;;;;;;;9.24;97.43;100982.56;20822956;28;20572;-68
2021/10/26 02:45:40;;;;;;;21.08;13.52;;;;;;;9.32;97.13;100986.06;20822498;28;20045;-68
2021/10/26 02:55:42;;;;;;;22.83;14.27;;;;;;;9.36;97.03;100974.72;20821211;28;20053;-68
2021/10/26 03:05:43;;;;;;;20.15;13.25;;;;;;;9.41;97.25;100985.19;20819474;28;20053;-68
2021/10/26 03:15:45;;;;;;;22.77;14.98;;;;;;;9.36;96.73;100979.94;20820429;28;20079;-68
2021/10/26 03:25:46;;;;;;;26.42;16.17;;;;;;;9.33;97.32;100985.16;20819106;28;20056;-68
2021/10/26 03:35:49;;;;;;;25.65;15.75;;;;;;;9.35;97.32;100996.50;20818296;28;20053;-68
2021/10/26 03:45:51;;;;;;;28.42;17.20;;;;;;;9.32;97.40;101001.72;20818162;28;20450;-68
2021/10/26 03:55:52;;;;;;;28.85;16.52;;;;;;;9.43;97.65;101018.25;20817678;28;20049;-68
2021/10/26 04:15:56;;;;;;;26.00;16.60;;;;;;;9.28;97.29;101020.91;20816096;28;20080;-68
2021/10/26 04:25:57;;;;;;;23.40;15.50;;;;;;;9.15;97.02;101027.88;20816984;28;20049;-68
2021/10/26 04:35:59;;;;;;;25.65;15.40;;;;;;;9.09;97.34;101027.00;20815469;28;20107;-68
2021/10/26 04:46:01;;;;;;;25.45;16.13;;;;;;;9.20;98.03;101038.34;20827160;28;20076;-69
2021/10/26 04:56:03;;;;;;;25.40;15.93;;;;;;;9.27;97.64;101037.44;20830812;28;20129;-68
2021/10/26 05:06:05;;;;;;;27.10;14.95;;;;;;;9.29;97.08;101035.69;20829373;28;20054;-68
2021/10/26 05:16:06;;;;;;;26.15;15.55;;;;;;;9.30;97.03;101047.03;20829543;28;20041;-68
2021/10/26 05:26:08;;;;;;;29.02;16.73;;;;;;;9.30;97.64;101047.03;20826885;28;20682;-68
2021/10/26 05:36:10;;;;;;;27.05;15.35;;;;;;;9.31;96.49;101038.31;20826835;28;20057;-68
2021/10/26 05:46:12;;;;;;;23.80;13.60;;;;;;;9.33;97.01;101060.97;20827488;28;20053;-69
2021/10/26 05:56:13;;;;;;;21.98;13.45;;;;;;;9.31;96.74;101067.94;20824811;28;20042;-69
2021/10/26 06:06:15;;;;;;;21.02;13.25;;;;;;;9.32;97.03;101067.06;20824503;28;20061;-68
2021/10/26 06:16:17;;;;;;;25.92;13.63;;;;;;;9.36;96.78;101070.56;20824038;28;20395;-70
2021/10/26 06:26:18;;;;;;;22.77;13.48;;;;;;;9.46;97.16;101086.22;20823598;28;20134;-68
2021/10/26 06:36:20;;;;;;;24.25;13.07;;;;;;;9.63;96.39;101101.03;20822304;28;20045;-68
2021/10/26 06:46:24;;;;;;;21.17;13.33;;;;;;;9.75;96.28;101104.50;20822088;28;20061;-69
2021/10/26 06:56:27;;;;;;;22.65;13.68;;;;;;;9.87;96.09;101116.72;20819788;28;20553;-71
2021/10/26 07:06:29;;;;;;;24.75;13.38;;;;;;;9.95;96.33;101125.41;20834755;28;20427;-75
2021/10/26 07:16:30;;;;;;;18.08;12.35;;;;;;;10.12;95.60;101148.06;20759496;28;20057;-71
2021/10/26 07:26:35;;;;;;;24.58;12.52;;;;;;;10.19;95.81;101148.03;20796964;28;20564;-72
2021/10/26 07:36:46;;;;;;;23.55;13.23;;;;;;;10.34;95.59;101169.84;20803257;28;20054;-74
2021/10/26 07:46:47;;;;;;;19.80;11.35;;;;;;;10.50;94.60;101172.44;20730761;28;20284;-71
2021/10/26 07:56:49;;;;;;;17.00;9.77;;;;;;;10.67;94.58;101179.34;20729558;28;20046;-71
2021/10/26 08:06:51;;;;;;;15.10;8.85;;;;;;;10.96;93.42;101193.19;20728852;28;20049;-70
2021/10/26 08:16:53;;;;;;;14.32;9.07;;;;;;;11.04;92.87;101187.94;20791711;28;20045;-70
2021/10/26 08:26:58;;;;;;;17.63;9.02;;;;;;;11.17;91.95;101192.25;20827728;28;20057;-70
2021/10/26 08:37:00;;;;;;;;;;;;;;;11.47;91.12;101191.16;20825677;28;20411;-70
2021/10/26 08:47:01;;;;;;;15.25;8.38;;;;;;;11.62;91.01;101195.44;20825025;28;20460;-71
2021/10/26 08:57:05;;;;;;;17.08;8.02;;;;;;;11.93;88.99;101190.88;20829085;28;20049;-70
2021/10/26 09:07:17;;;;;;;16.77;7.97;;;;;;;11.99;88.13;101174.19;20823162;28;20076;-69
2021/10/26 09:17:20;;;;;;;15.68;7.70;;;;;;;12.28;87.17;101187.03;20761594;28;20104;-70
2021/10/26 09:27:23;;;;;;;21.33;8.55;;;;;;;11.94;87.63;101182.09;20738536;28;20053;-70
2021/10/26 09:37:32;;;;;;;14.93;7.97;;;;;;;12.44;88.03;101185.09;20738166;28;20053;-69
2021/10/26 09:47:37;;;;;;;13.32;6.03;;;;;;;12.86;85.12;101191.63;20738606;28;20481;-69
2021/10/26 09:57:43;;;;;;;11.95;5.18;;;;;;;12.78;85.81;101190.84;20738074;28;20380;-70
2021/10/26 10:07:45;;;;;;;17.38;6.55;;;;;;;12.79;85.17;101189.94;20736713;28;20073;-69
2021/10/26 10:17:47;;;;;;;11.15;4.97;;;;;;;12.84;83.81;101182.91;20801999;28;20046;-69
2021/10/26 10:27:50;;;;;;;10.75;4.25;;;;;;;13.21;82.21;101190.28;20816833;28;20550;-70
2021/10/26 10:37:55;;;;;;;9.18;3.80;;;;;;;13.83;78.65;101188.50;20815047;28;20053;-69
2021/10/26 10:47:56;;;;;;;9.63;3.80;;;;;;;14.66;76.52;101176.47;20815773;28;20061;-69
2021/10/26 10:58:21;;;;;;;12.10;4.40;;;;;;;15.23;74.01;101184.91;20814055;28;20407;-70
2021/10/26 11:08:46;;;;;;;6.70;3.57;;;;;;;14.86;74.64;101182.22;20814135;28;20122;-69
2021/10/26 11:18:49;;;;;;;9.70;3.87;;;;;;;14.76;74.41;101188.59;20739284;28;20079;-69
2021/10/26 11:28:56;;;;;;;9.57;4.50;;;;;;;14.62;75.31;101168.63;20730632;28;20081;-69
2021/10/26 11:38:59;;;;;;;8.63;3.75;;;;;;;14.83;74.25;101166.47;20730448;28;20539;-69
2021/10/26 11:49:05;;;;;;;8.75;3.95;;;;;;;14.65;74.14;101153.66;20729237;28;20487;-69
2021/10/26 11:59:08;;;;;;;8.88;3.55;;;;;;;14.79;74.87;101146.31;20729607;28;20049;-69
2021/10/26 12:09:11;;;;;;;6.60;3.00;;;;;;;14.92;74.12;101145.16;20728315;28;20062;-69
2021/10/26 12:19:26;;;;;;;6.30;2.90;;;;;;;15.70;69.40;101150.41;20805258;28;20053;-69
2021/10/26 12:29:34;;;;;;;6.63;2.63;;;;;;;15.60;70.05;101142.69;20810218;28;20057;-69
2021/10/26 12:39:35;;;;;;;9.35;3.20;;;;;;;15.71;70.41;101141.59;20809438;28;20046;-69
2021/10/26 12:49:37;;;;;;;9.30;4.38;;;;;;;15.51;71.46;101142.06;20809393;28;20041;-69
2021/10/26 12:59:38;;;;;;;8.77;4.10;;;;;;;15.41;71.85;101130.84;20810007;28;20096;-70
2021/10/26 13:09:48;;;;;;;6.20;3.13;;;;;;;15.24;71.55;101128.63;20821114;28;20115;-69
2021/10/26 13:19:50;;;;;;;7.63;3.47;;;;;;;15.03;71.88;101118.56;20821654;28;20049;-69
2021/10/26 13:29:52;;;;;;;6.25;2.78;;;;;;;15.04;70.82;101115.91;20823866;28;20053;-69
2021/10/26 13:39:54;;;;;;;5.90;2.60;;;;;;;15.02;72.11;101122.97;20824337;28;20045;-69
2021/10/26 13:49:56;;;;;;;3.35;1.38;;;;;;;15.03;69.22;101122.06;20820199;28;20689;-68
2021/10/26 13:59:57;;;;;;;3.83;1.45;;;;;;;15.27;67.19;101111.84;20820593;28;20103;-68
2021/10/26 14:09:59;;;;;;;5.35;1.23;;;;;;;14.85;67.20;101111.91;20818579;28;20049;-68
2021/10/26 14:20:01;;;;;;;4.72;1.20;;;;;;;14.86;67.14;101126.84;20816927;28;20096;-68
2021/10/26 14:30:05;;;;;;;;;;;;;;;14.88;66.95;101122.41;20817098;28;20570;-68
2021/10/26 15:00:42;;;;;;;4.00;1.70;;;;;;;14.51;71.13;101148.66;20814001;28;19921;-68
2021/10/26 15:10:49;;;;;;;3.67;1.60;;;;;;;14.43;70.95;101153.19;20806362;28;20644;-68
2021/10/26 15:20:51;;;;;;;3.92;1.63;;;;;;;14.28;69.58;101165.75;20732314;28;20046;-68
2021/10/26 15:41:12;;;;;;;5.72;2.00;;;;;;;13.78;70.38;101162.25;20730950;28;20046;-69
2021/10/26 15:51:20;;;;;;;4.93;1.80;;;;;;;13.53;71.76;101179.34;20730664;28;20076;-69
2021/10/26 16:01:22;;;;;;;6.53;2.03;;;;;;;13.27;72.88;101198.09;20729863;28;20108;-69
2021/10/26 16:11:32;;;;;;;4.30;1.85;;;;;;;12.86;75.15;101211.78;20746592;28;20057;-69
2021/10/26 16:21:35;;;;;;;6.90;3.00;;;;;;;12.53;76.56;101219.16;20809558;28;20045;-69
2021/10/26 16:31:37;;;;;;;7.60;4.10;;;;;;;12.22;78.36;101229.09;20809621;28;20054;-69
2021/10/26 16:41:40;;;;;;;13.98;5.88;;;;;;;11.93;79.79;101243.34;20819846;28;20053;-69
2021/10/26 16:51:43;;;;;;;11.68;5.88;;;;;;;11.61;81.40;101251.41;20825511;28;20045;-69
2021/10/26 17:01:45;;;;;;;11.85;6.18;;;;;;;11.38;82.77;101267.25;20823063;28;20100;-69
2021/10/26 17:11:49;;;;;;;10.07;6.13;;;;;;;11.21;83.31;101280.47;20822975;28;20053;-69
2021/10/26 17:22:10;;;;;;;13.13;8.73;;;;;;;10.92;84.37;101293.69;20822013;28;20266;-69
2021/10/26 17:32:13;;;;;;;16.60;8.07;;;;;;;10.83;85.41;101324.25;20821075;28;20049;-69
2021/10/26 17:42:14;;;;;;;11.38;5.95;;;;;;;10.52;87.12;101338.25;20820362;28;20049;-69
2021/10/26 17:52:16;;;;;;;10.05;4.53;;;;;;;10.23;88.92;101345.19;20820073;28;20100;-69
2021/10/26 18:02:18;;;;;;;9.98;5.57;;;;;;;10.10;88.22;101352.16;20820129;28;20577;-69
2021/10/26 18:12:19;;;;;;;16.05;7.30;;;;;;;10.00;89.15;101361.72;20798134;28;20045;-69
2021/10/26 18:22:23;;;;;;;11.10;6.57;;;;;;;9.82;89.62;101356.47;20734758;28;20549;-69
2021/10/26 18:32:24;;;;;;;15.77;8.52;;;;;;;9.66;90.06;101366.00;20734555;28;20458;-69
2021/10/26 18:42:34;;;;;;;18.90;10.57;;;;;;;9.46;89.41;101354.59;20734360;28;20042;-69
2021/10/26 18:52:36;;;;;;;29.23;19.20;;;;;;;9.40;89.92;101354.59;20733868;28;20054;-69
2021/10/26 19:02:38;;;;;;;20.65;11.48;;;;;;;9.22;90.15;101386.72;20732097;28;20052;-69
2021/10/26 19:12:41;;;;;;;30.00;16.30;;;;;;;9.09;90.98;101392.72;20758070;28;20106;-69
2021/10/26 19:22:42;;;;;;;18.85;11.57;;;;;;;8.99;92.01;101395.28;20813299;28;20041;-69
2021/10/26 19:32:44;;;;;;;25.75;13.73;;;;;;;8.84;91.22;101394.31;20812314;28;20053;-69
2021/10/26 19:42:48;;;;;;;22.02;12.60;;;;;;;8.70;91.27;101410.72;20813010;28;20490;-69
2021/10/26 19:52:50;;;;;;;22.02;12.25;;;;;;;8.62;92.03;101408.91;20811413;28;20478;-69
2021/10/26 20:02:55;;;;;;;19.90;12.60;;;;;;;8.53;91.78;101414.06;20811057;28;20049;-69
2021/10/26 20:13:00;;;;;;;21.35;13.30;;;;;;;8.44;91.76;101420.97;20791711;28;20053;-69
2021/10/26 20:33:29;;;;;;;20.95;12.98;;;;;;;8.16;92.13;101431.94;20744741;28;20462;-69
2021/10/26 20:43:33;;;;;;;21.63;13.02;;;;;;;8.04;92.21;101437.00;20743886;28;20066;-69
2021/10/26 20:53:36;;;;;;;20.67;11.57;;;;;;;7.96;92.31;101443.03;20743797;28;20105;-69
2021/10/26 21:03:38;;;;;;;21.75;10.40;;;;;;;7.83;92.38;101441.13;20741888;28;20053;-69
2021/10/26 21:13:40;;;;;;;15.95;9.50;;;;;;;7.73;92.54;101449.69;20773083;28;20103;-69
2021/10/26 21:23:41;;;;;;;13.40;8.75;;;;;;;7.61;92.13;101429.53;20821671;28;20077;-69
2021/10/26 21:34:48;;;;;;;15.70;9.40;;;;;;;7.50;92.26;101435.50;20821952;28;20052;-69
2021/10/26 21:44:15;;;;;;;13.55;8.55;;;;;;;7.43;92.81;101427.59;20810599;28;20567;-69
2021/10/26 21:54:17;;;;;;;14.52;8.68;;;;;;;7.49;93.99;101420.72;20820321;28;20119;-69
2021/10/26 22:04:19;;;;;;;13.48;8.35;;;;;;;7.52;94.37;101433.75;20820267;28;20099;-69
2021/10/26 22:14:20;;;;;;;17.15;11.07;;;;;;;7.49;94.15;101412.91;20825539;28;20045;-69
2021/10/26 22:24:22;;;;;;;17.85;9.82;;;;;;;7.41;94.62;101420.59;20823730;28;20506;-69
2021/10/26 22:34:24;;;;;;;17.88;10.13;;;;;;;7.52;95.41;101424.25;20823035;28;20084;-69
2021/10/26 22:44:25;;;;;;;18.17;10.15;;;;;;;7.39;95.10;101427.53;20823589;28;20057;-69
2021/10/26 22:54:27;;;;;;;22.02;10.82;;;;;;;7.28;95.11;101424.78;20821297;28;20053;-69
2021/10/26 23:04:29;;;;;;;21.13;12.27;;;;;;;7.32;96.04;101426.56;20819875;28;20046;-69
2021/10/26 23:14:30;;;;;;;19.83;12.13;;;;;;;7.18;95.46;101428.97;20820461;28;20095;-69
2021/10/26 23:24:32;;;;;;;20.33;12.48;;;;;;;7.05;95.19;101426.19;20818177;28;20399;-69
2021/10/26 23:34:34;;;;;;;21.70;13.07;;;;;;;7.00;95.60;101428.72;20819499;28;20045;-69
2021/10/26 23:44:35;;;;;;;21.90;13.60;;;;;;;6.96;95.32;101433.84;20819580;28;20057;-69
2021/10/26 23:54:37;;;;;;;24.75;14.70;;;;;;;7.00;94.97;101427.84;20818562;28;20053;-69
